createdAt,value
2023-02-06T00:01:38.404Z,80414.06
2023-02-06T00:04:05.577Z,80414.06
2023-02-06T00:06:33.192Z,80414.06
2023-02-06T00:09:01.122Z,80418.13
2023-02-06T00:11:28.362Z,80414.06
2023-02-06T00:13:55.307Z,80412.03
2023-02-06T00:16:22.433Z,80414.06
2023-02-06T00:18:50.049Z,80412.03
2023-02-06T00:21:22.009Z,80426.25
2023-02-06T00:23:49.571Z,80414.06
2023-02-06T00:26:17.289Z,80418.13
2023-02-06T00:28:45.429Z,80410.03
2023-02-06T00:31:13.778Z,80408.00
2023-02-06T00:33:40.988Z,80426.25
2023-02-06T00:36:08.683Z,80414.06
2023-02-06T00:38:37.814Z,80410.03
2023-02-06T00:41:05.501Z,80410.03
2023-02-06T00:43:32.615Z,80401.91
2023-02-06T00:45:59.934Z,80410.03
2023-02-06T00:48:27.330Z,80399.88
2023-02-06T00:50:54.727Z,80397.84
2023-02-06T00:53:22.243Z,80399.88
2023-02-06T00:55:49.413Z,80397.84
2023-02-06T00:58:16.417Z,80389.72
2023-02-06T01:00:44.002Z,80389.72
2023-02-06T01:03:11.587Z,80393.78
2023-02-06T01:05:39.459Z,80389.72
2023-02-06T01:08:06.425Z,80395.81
2023-02-06T01:10:33.680Z,80369.44
2023-02-06T01:13:00.896Z,80379.56
2023-02-06T01:15:28.159Z,80373.50
2023-02-06T01:17:56.032Z,80381.59
2023-02-06T01:20:24.001Z,80375.53
2023-02-06T01:22:51.173Z,80381.59
2023-02-06T01:25:18.597Z,80385.66
2023-02-06T01:27:45.636Z,80381.59
2023-02-06T01:30:14.041Z,80379.56
2023-02-06T01:32:41.841Z,80385.66
2023-02-06T01:35:10.785Z,80373.50
2023-02-06T01:37:39.113Z,80369.44
2023-02-06T01:40:11.814Z,80369.44
2023-02-06T01:42:38.804Z,80377.56
2023-02-06T01:45:44.293Z,80373.50
2023-02-06T01:48:16.293Z,80375.53
2023-02-06T01:50:50.120Z,80373.50
2023-02-06T01:53:18.202Z,80373.50
2023-02-06T01:55:47.663Z,80369.44
2023-02-06T01:58:19.265Z,80373.50
2023-02-06T02:00:46.861Z,80373.50
2023-02-06T02:03:14.231Z,80377.56
2023-02-06T02:05:43.393Z,80385.66
2023-02-06T02:08:22.510Z,80381.59
2023-02-06T02:10:50.709Z,80385.66
2023-02-06T02:13:17.638Z,80385.66
2023-02-06T02:15:56.230Z,80373.50
2023-02-06T02:18:47.908Z,80373.50
2023-02-06T02:21:39.012Z,80375.53
2023-02-06T02:24:12.217Z,80389.72
2023-02-06T02:26:58.339Z,80393.78
2023-02-06T02:29:51.706Z,80389.72
2023-02-06T02:32:49.897Z,80393.78
2023-02-06T02:35:40.663Z,80405.97
2023-02-06T02:38:24.040Z,80412.03
2023-02-06T02:40:59.386Z,80430.31
2023-02-06T02:43:43.509Z,80426.25
2023-02-06T02:46:31.629Z,80426.25
2023-02-06T02:49:05.059Z,80426.25
2023-02-06T02:51:35.582Z,80434.38
2023-02-06T02:54:02.827Z,80430.31
2023-02-06T02:56:30.524Z,80424.22
2023-02-06T02:59:11.568Z,80446.53
2023-02-06T03:01:49.648Z,80446.53
2023-02-06T03:04:25.233Z,80438.44
2023-02-06T03:07:04.182Z,80440.47
2023-02-06T03:09:46.342Z,80434.38
2023-02-06T03:12:35.159Z,80432.34
2023-02-06T03:15:11.080Z,80434.38
2023-02-06T03:17:51.425Z,80430.31
2023-02-06T03:20:19.536Z,80446.53
2023-02-06T03:22:48.913Z,80450.59
2023-02-06T03:25:23.472Z,80446.53
2023-02-06T03:27:52.723Z,80442.50
2023-02-06T03:30:24.000Z,80454.66
2023-02-06T03:32:54.490Z,80450.59
2023-02-06T03:35:26.771Z,80454.66
2023-02-06T03:37:54.227Z,80458.72
2023-02-06T03:40:22.120Z,80450.59
2023-02-06T03:42:53.586Z,80454.66
2023-02-06T03:45:42.741Z,80454.66
2023-02-06T03:48:19.073Z,80458.72
2023-02-06T03:50:50.311Z,80466.84
2023-02-06T03:53:19.024Z,80454.66
2023-02-06T03:55:47.501Z,80470.91
2023-02-06T03:58:15.026Z,80464.81
2023-02-06T04:00:45.991Z,80462.78
2023-02-06T04:03:14.418Z,80474.97
2023-02-06T04:05:41.643Z,80474.97
2023-02-06T04:08:08.681Z,80479.00
2023-02-06T04:10:36.012Z,80479.00
2023-02-06T04:13:02.998Z,80474.97
2023-02-06T04:15:30.222Z,80474.97
2023-02-06T04:18:01.049Z,80479.00
2023-02-06T04:20:29.871Z,80479.00
2023-02-06T04:22:57.642Z,80495.25
2023-02-06T04:25:25.278Z,80483.06
2023-02-06T04:27:52.272Z,80479.00
2023-02-06T04:30:19.689Z,80485.09
2023-02-06T04:32:46.662Z,80487.13
2023-02-06T04:35:14.091Z,80495.25
2023-02-06T04:37:41.180Z,80491.19
2023-02-06T04:40:09.131Z,80495.25
2023-02-06T04:42:36.076Z,80499.31
2023-02-06T04:45:03.466Z,80503.38
2023-02-06T04:47:30.507Z,80495.25
2023-02-06T04:49:57.703Z,80499.31
2023-02-06T04:52:24.613Z,80495.25
2023-02-06T04:54:51.762Z,80491.19
2023-02-06T04:57:18.662Z,80491.19
2023-02-06T04:59:45.862Z,80503.38
2023-02-06T05:02:12.885Z,80505.41
2023-02-06T05:04:40.088Z,80513.50
2023-02-06T05:07:07.080Z,80511.50
2023-02-06T05:09:34.357Z,80531.78
2023-02-06T05:12:01.226Z,80543.97
2023-02-06T05:14:28.464Z,80535.84
2023-02-06T05:16:55.669Z,80539.91
2023-02-06T05:19:23.167Z,80543.97
2023-02-06T05:21:50.129Z,80539.91
2023-02-06T05:24:17.327Z,80552.06
2023-02-06T05:26:45.090Z,80552.06
2023-02-06T05:29:12.411Z,80548.00
2023-02-06T05:31:39.292Z,80527.72
2023-02-06T05:34:06.569Z,80533.81
2023-02-06T05:36:33.441Z,80543.97
2023-02-06T05:39:00.684Z,80539.91
2023-02-06T05:41:27.635Z,80539.91
2023-02-06T05:43:54.769Z,80543.97
2023-02-06T05:46:21.820Z,80572.38
2023-02-06T05:48:49.276Z,80580.50
2023-02-06T05:51:16.586Z,80584.53
2023-02-06T05:53:44.242Z,80588.59
2023-02-06T05:56:11.138Z,80592.66
2023-02-06T05:58:38.316Z,80598.75
2023-02-06T06:01:05.661Z,80592.66
2023-02-06T06:03:33.566Z,80584.53
2023-02-06T06:06:00.590Z,80580.50
2023-02-06T06:08:27.878Z,80576.44
2023-02-06T06:10:54.736Z,80572.38
2023-02-06T06:13:22.093Z,80572.38
2023-02-06T06:15:52.710Z,80568.31
2023-02-06T06:18:20.949Z,80568.31
2023-02-06T06:20:48.380Z,80580.50
2023-02-06T06:23:15.623Z,80592.66
2023-02-06T06:25:42.812Z,80592.66
2023-02-06T06:28:10.364Z,80580.50
2023-02-06T06:30:39.004Z,80568.31
2023-02-06T06:33:06.271Z,80543.97
2023-02-06T06:35:33.230Z,80548.00
2023-02-06T06:38:00.396Z,80552.06
2023-02-06T06:40:27.350Z,80535.84
2023-02-06T06:42:54.805Z,80527.72
2023-02-06T06:45:21.957Z,80531.78
2023-02-06T06:47:49.196Z,80539.91
2023-02-06T06:50:16.488Z,80539.91
2023-02-06T06:52:44.003Z,80539.91
2023-02-06T06:55:11.214Z,80541.94
2023-02-06T06:57:38.454Z,80535.84
2023-02-06T07:00:06.082Z,80543.97
2023-02-06T07:02:33.321Z,80541.94
2023-02-06T07:05:00.479Z,80543.97
2023-02-06T07:07:27.863Z,80535.84
2023-02-06T07:09:54.820Z,80527.72
2023-02-06T07:12:22.365Z,80511.50
2023-02-06T07:14:49.311Z,80515.53
2023-02-06T07:17:16.455Z,80507.44
2023-02-06T07:19:48.057Z,80503.38
2023-02-06T07:22:15.786Z,80499.31
2023-02-06T07:24:43.085Z,80468.88
2023-02-06T07:27:10.477Z,80446.53
2023-02-06T07:29:38.026Z,80436.41
2023-02-06T07:32:05.771Z,80438.44
2023-02-06T07:34:32.735Z,80422.19
2023-02-06T07:37:00.795Z,80405.97
2023-02-06T07:39:27.931Z,80391.75
2023-02-06T07:41:55.585Z,80365.38
2023-02-06T07:44:26.874Z,80336.97
2023-02-06T07:46:54.088Z,80349.13
2023-02-06T07:49:21.100Z,80336.97
2023-02-06T07:51:48.515Z,80316.66
2023-02-06T07:54:15.821Z,80288.25
2023-02-06T07:56:43.700Z,80276.09
2023-02-06T07:59:10.818Z,80280.13
2023-02-06T08:01:38.055Z,80316.66
2023-02-06T08:04:05.235Z,80326.81
2023-02-06T08:06:32.557Z,80345.06
2023-02-06T08:08:59.490Z,80324.78
2023-02-06T08:11:30.174Z,80336.97
2023-02-06T08:13:58.338Z,80345.06
2023-02-06T08:16:25.773Z,80332.91
2023-02-06T08:18:52.805Z,80336.97
2023-02-06T08:21:22.826Z,80341.03
2023-02-06T08:24:00.543Z,80336.97
2023-02-06T08:26:29.517Z,80324.78
2023-02-06T08:28:58.245Z,80322.75
2023-02-06T08:31:28.911Z,80320.72
2023-02-06T08:33:56.334Z,80316.66
2023-02-06T08:36:24.519Z,80306.53
2023-02-06T08:38:52.563Z,80276.09
2023-02-06T08:41:26.151Z,80247.69
2023-02-06T08:43:56.916Z,80219.25
2023-02-06T08:46:28.362Z,80198.97
2023-02-06T08:48:57.304Z,80182.75
2023-02-06T08:51:27.897Z,80158.38
2023-02-06T08:53:58.736Z,80170.56
2023-02-06T08:56:26.983Z,80182.75
2023-02-06T08:58:54.438Z,80186.78
2023-02-06T09:01:21.931Z,80186.78
2023-02-06T09:03:48.925Z,80174.63
2023-02-06T09:06:16.214Z,80154.31
2023-02-06T09:08:43.387Z,80150.28
2023-02-06T09:11:13.442Z,80134.03
2023-02-06T09:13:40.415Z,80113.75
2023-02-06T09:16:08.461Z,80109.69
2023-02-06T09:18:36.217Z,80121.88
2023-02-06T09:21:19.045Z,80129.97
2023-02-06T09:23:52.135Z,80121.88
2023-02-06T09:26:23.307Z,80105.63
2023-02-06T09:28:59.342Z,80085.34
2023-02-06T09:31:30.792Z,80077.22
2023-02-06T09:34:00.319Z,80056.94
2023-02-06T09:36:30.210Z,80044.75
2023-02-06T09:38:58.356Z,80046.78
2023-02-06T09:41:37.731Z,80044.75
2023-02-06T09:44:27.763Z,80048.81
2023-02-06T09:46:58.008Z,80034.59
2023-02-06T09:49:43.169Z,80020.41
2023-02-06T09:52:30.705Z,80004.16
2023-02-06T09:55:28.543Z,79979.81
2023-02-06T09:58:20.730Z,79983.88
2023-02-06T10:01:05.895Z,79969.69
2023-02-06T10:03:55.188Z,79941.28
2023-02-06T10:06:34.627Z,79914.88
2023-02-06T10:09:03.752Z,79890.53
2023-02-06T10:11:48.392Z,79886.47
2023-02-06T10:14:22.469Z,79866.19
2023-02-06T10:17:00.142Z,79874.31
2023-02-06T10:19:46.704Z,79862.13
2023-02-06T10:22:43.674Z,79870.25
2023-02-06T10:25:21.104Z,79860.09
2023-02-06T10:27:55.173Z,79845.91
2023-02-06T10:30:40.124Z,79837.78
2023-02-06T10:33:25.712Z,79825.63
2023-02-06T10:36:18.315Z,79817.50
2023-02-06T10:39:22.591Z,79799.25
2023-02-06T10:41:58.701Z,79793.16
2023-02-06T10:44:37.484Z,79770.81
2023-02-06T10:47:15.579Z,79760.69
2023-02-06T10:49:50.815Z,79736.34
2023-02-06T10:52:35.896Z,79712.00
2023-02-06T10:55:28.331Z,79683.59
2023-02-06T10:58:17.125Z,79651.13
2023-02-06T11:00:46.121Z,79618.66
2023-02-06T11:03:19.150Z,79594.31
2023-02-06T11:05:46.296Z,79602.44
2023-02-06T11:08:13.450Z,79610.53
2023-02-06T11:10:40.727Z,79606.50
2023-02-06T11:13:23.349Z,79594.31
2023-02-06T11:16:02.652Z,79576.06
2023-02-06T11:18:37.914Z,79574.03
2023-02-06T11:21:05.859Z,79580.13
2023-02-06T11:23:35.130Z,79541.56
2023-02-06T11:26:15.537Z,79501.00
2023-02-06T11:29:08.839Z,79464.47
2023-02-06T11:31:58.574Z,79496.94
2023-02-06T11:34:27.999Z,79501.00
2023-02-06T11:37:06.956Z,79525.34
2023-02-06T11:39:35.609Z,79545.63
2023-02-06T11:42:18.635Z,79557.78
2023-02-06T11:44:50.719Z,79598.38
2023-02-06T11:47:37.594Z,79634.88
2023-02-06T11:50:14.324Z,79667.34
2023-02-06T11:52:46.589Z,79675.47
2023-02-06T11:55:27.297Z,79691.69
2023-02-06T11:58:05.395Z,79716.03
2023-02-06T12:00:36.145Z,79707.94
2023-02-06T12:03:05.601Z,79691.69
2023-02-06T12:05:41.829Z,79687.66
2023-02-06T12:08:17.179Z,79687.66
2023-02-06T12:10:56.139Z,79703.88
2023-02-06T12:13:33.839Z,79716.03
2023-02-06T12:16:05.714Z,79712.00
2023-02-06T12:18:38.373Z,79712.00
2023-02-06T12:21:12.316Z,79716.03
2023-02-06T12:23:50.314Z,79716.03
2023-02-06T12:26:22.078Z,79712.00
2023-02-06T12:29:00.280Z,79679.53
2023-02-06T12:31:42.482Z,79655.19
2023-02-06T12:34:28.881Z,79618.66
2023-02-06T12:37:10.963Z,79602.44
2023-02-06T12:39:38.113Z,79586.19
2023-02-06T12:42:46.826Z,79569.97
2023-02-06T12:45:25.816Z,79576.06
2023-02-06T12:48:12.331Z,79569.97
2023-02-06T12:50:42.999Z,79584.16
2023-02-06T12:53:33.277Z,79602.44
2023-02-06T12:56:37.194Z,79614.59
2023-02-06T12:59:07.383Z,79638.94
2023-02-06T13:01:52.683Z,79638.94
2023-02-06T13:04:24.389Z,79632.88
2023-02-06T13:07:22.044Z,79634.88
2023-02-06T13:10:14.002Z,79626.78
2023-02-06T13:12:40.906Z,79618.66
2023-02-06T13:15:22.508Z,79630.84
2023-02-06T13:17:51.294Z,79630.84
2023-02-06T13:20:20.970Z,79630.84
2023-02-06T13:22:55.300Z,79626.78
2023-02-06T13:25:25.084Z,79622.72
2023-02-06T13:27:53.493Z,79614.59
2023-02-06T13:30:29.918Z,79622.72
2023-02-06T13:33:24.723Z,79618.66
2023-02-06T13:36:00.691Z,79610.53
2023-02-06T13:38:37.976Z,79616.63
2023-02-06T13:41:17.160Z,79620.69
2023-02-06T13:44:20.737Z,79598.38
2023-02-06T13:47:16.184Z,79590.25
2023-02-06T13:50:08.785Z,79586.19
2023-02-06T13:52:55.135Z,79586.19
2023-02-06T13:55:44.939Z,79569.97
2023-02-06T13:58:39.374Z,79569.97
2023-02-06T14:01:14.672Z,79590.25
2023-02-06T14:03:48.538Z,79594.31
2023-02-06T14:06:16.163Z,79610.53
2023-02-06T14:09:08.980Z,79634.88
2023-02-06T14:12:22.530Z,79647.06
2023-02-06T14:15:16.639Z,79655.19
2023-02-06T14:18:09.388Z,79655.19
2023-02-06T14:20:55.276Z,79671.41
2023-02-06T14:23:31.415Z,79679.53
2023-02-06T14:26:21.081Z,79693.72
2023-02-06T14:29:10.249Z,79695.75
2023-02-06T14:31:46.227Z,79707.94
2023-02-06T14:35:00.926Z,79716.03
2023-02-06T14:37:50.500Z,79740.41
2023-02-06T14:40:25.741Z,79750.53
2023-02-06T14:42:57.643Z,79764.75
2023-02-06T14:45:42.061Z,79776.91
2023-02-06T14:48:24.546Z,79797.22
2023-02-06T14:50:56.694Z,79803.28
2023-02-06T14:53:27.378Z,79813.44
2023-02-06T14:56:24.137Z,79825.63
2023-02-06T14:58:51.481Z,79837.78
2023-02-06T15:01:18.735Z,79837.78
2023-02-06T15:03:47.873Z,79835.75
2023-02-06T15:06:45.038Z,79845.91
2023-02-06T15:09:31.938Z,79854.03
2023-02-06T15:12:02.488Z,79862.13
2023-02-06T15:14:34.946Z,79870.25
2023-02-06T15:17:02.956Z,79882.44
2023-02-06T15:19:32.833Z,79886.47
2023-02-06T15:22:03.278Z,79894.59
2023-02-06T15:24:56.939Z,79892.56
2023-02-06T15:27:30.903Z,79906.78
2023-02-06T15:29:59.385Z,79923.00
2023-02-06T15:32:33.566Z,79927.06
2023-02-06T15:35:01.904Z,79935.19
2023-02-06T15:37:34.528Z,79947.34
2023-02-06T15:40:08.818Z,79953.44
2023-02-06T15:42:37.071Z,79961.56
2023-02-06T15:45:04.810Z,79951.41
2023-02-06T15:47:33.084Z,79955.47
2023-02-06T15:50:00.640Z,79963.59
2023-02-06T15:52:36.748Z,79971.72
2023-02-06T15:55:04.974Z,79983.88
2023-02-06T15:57:40.814Z,79992.00
2023-02-06T16:00:23.427Z,80004.16
2023-02-06T16:02:53.332Z,80002.13
2023-02-06T16:05:34.512Z,80012.28
2023-02-06T16:08:04.064Z,80004.16
2023-02-06T16:10:36.339Z,80012.28
2023-02-06T16:13:11.072Z,80016.34
2023-02-06T16:15:40.362Z,80032.59
2023-02-06T16:18:29.222Z,80032.59
2023-02-06T16:21:18.209Z,80048.81
2023-02-06T16:23:47.170Z,80052.88
2023-02-06T16:26:18.710Z,80056.94
2023-02-06T16:28:55.348Z,80056.94
2023-02-06T16:31:23.114Z,80067.06
2023-02-06T16:33:52.554Z,80071.13
2023-02-06T16:36:21.055Z,80075.19
2023-02-06T16:39:02.778Z,80085.34
2023-02-06T16:41:33.907Z,80097.50
2023-02-06T16:44:03.289Z,80089.41
2023-02-06T16:46:30.831Z,80105.63
2023-02-06T16:48:59.388Z,80101.56
2023-02-06T16:51:28.833Z,80103.59
2023-02-06T16:53:57.329Z,80093.44
2023-02-06T16:56:24.804Z,80109.69
2023-02-06T16:58:55.514Z,80113.75
2023-02-06T17:01:25.880Z,80127.94
2023-02-06T17:03:54.386Z,80125.91
2023-02-06T17:06:26.139Z,80138.09
2023-02-06T17:08:58.514Z,80129.97
2023-02-06T17:11:25.587Z,80127.94
2023-02-06T17:13:52.978Z,80132.00
2023-02-06T17:16:22.733Z,80138.09
2023-02-06T17:18:51.658Z,80125.91
2023-02-06T17:21:21.706Z,80125.91
2023-02-06T17:23:50.671Z,80129.97
2023-02-06T17:26:22.692Z,80136.06
2023-02-06T17:28:50.703Z,80146.22
2023-02-06T17:31:18.520Z,80138.09
2023-02-06T17:33:45.866Z,80142.16
2023-02-06T17:36:22.004Z,80134.03
2023-02-06T17:38:49.669Z,80142.16
2023-02-06T17:41:16.582Z,80142.16
2023-02-06T17:43:43.994Z,80142.16
2023-02-06T17:46:11.840Z,80154.31
2023-02-06T17:48:42.701Z,80154.31
2023-02-06T17:51:10.874Z,80158.38
2023-02-06T17:53:38.147Z,80166.50
2023-02-06T17:56:14.816Z,80174.63
2023-02-06T17:58:43.632Z,80174.63
2023-02-06T18:01:15.828Z,80174.63
2023-02-06T18:03:43.789Z,80154.31
2023-02-06T18:06:11.388Z,80160.41
2023-02-06T18:08:39.468Z,80176.66
2023-02-06T18:11:15.513Z,80182.75
2023-02-06T18:13:42.840Z,80188.81
2023-02-06T18:16:18.219Z,80178.69
2023-02-06T18:18:46.747Z,80190.84
2023-02-06T18:21:14.416Z,80186.78
2023-02-06T18:23:41.742Z,80190.84
2023-02-06T18:26:10.002Z,80182.75
2023-02-06T18:28:39.024Z,80186.78
2023-02-06T18:31:19.413Z,80190.84
2023-02-06T18:33:47.237Z,80182.75
2023-02-06T18:36:14.151Z,80194.91
2023-02-06T18:38:42.579Z,80194.91
2023-02-06T18:41:29.598Z,80201.00
2023-02-06T18:44:00.274Z,80211.16
2023-02-06T18:46:27.378Z,80207.09
2023-02-06T18:48:55.113Z,80209.13
2023-02-06T18:51:22.224Z,80213.19
2023-02-06T18:53:49.991Z,80217.22
2023-02-06T18:56:17.298Z,80229.41
2023-02-06T18:58:44.549Z,80229.41
2023-02-06T19:01:17.712Z,80241.59
2023-02-06T19:03:45.430Z,80241.59
2023-02-06T19:06:23.632Z,80239.56
2023-02-06T19:08:50.826Z,80243.63
2023-02-06T19:11:17.859Z,80247.69
2023-02-06T19:13:45.294Z,80263.91
2023-02-06T19:16:18.269Z,80257.81
2023-02-06T19:18:48.230Z,80255.78
2023-02-06T19:21:18.247Z,80263.91
2023-02-06T19:23:48.307Z,80259.84
2023-02-06T19:26:16.914Z,80265.94
2023-02-06T19:28:44.717Z,80272.03
2023-02-06T19:31:12.960Z,80284.19
2023-02-06T19:33:41.691Z,80288.25
2023-02-06T19:36:11.475Z,80280.13
2023-02-06T19:38:39.873Z,80288.25
2023-02-06T19:41:08.821Z,80280.13
2023-02-06T19:43:37.125Z,80280.13
2023-02-06T19:46:09.108Z,80272.03
2023-02-06T19:48:36.452Z,80272.03
2023-02-06T19:51:11.440Z,80282.16
2023-02-06T19:53:45.257Z,80288.25
2023-02-06T19:56:13.874Z,80282.16
2023-02-06T19:58:41.718Z,80298.41
2023-02-06T20:01:14.379Z,80294.34
2023-02-06T20:03:42.555Z,80288.25
2023-02-06T20:06:12.497Z,80284.19
2023-02-06T20:08:43.143Z,80288.25
2023-02-06T20:11:14.623Z,80304.50
2023-02-06T20:13:42.860Z,80300.44
2023-02-06T20:16:31.637Z,80292.31
2023-02-06T20:19:04.787Z,80294.34
2023-02-06T20:21:34.741Z,80292.31
2023-02-06T20:24:04.381Z,80284.19
2023-02-06T20:26:34.765Z,80296.38
2023-02-06T20:29:02.647Z,80298.41
2023-02-06T20:31:30.349Z,80296.38
2023-02-06T20:33:57.639Z,80300.44
2023-02-06T20:36:26.376Z,80300.44
2023-02-06T20:38:56.467Z,80300.44
2023-02-06T20:41:27.518Z,80302.47
2023-02-06T20:44:01.476Z,80304.50
2023-02-06T20:46:30.802Z,80304.50
2023-02-06T20:49:03.373Z,80306.53
2023-02-06T20:51:31.128Z,80312.63
2023-02-06T20:53:58.796Z,80308.56
2023-02-06T20:56:27.140Z,80310.59
2023-02-06T20:58:54.577Z,80312.63
2023-02-06T21:01:24.191Z,80314.63
2023-02-06T21:03:54.690Z,80324.78
2023-02-06T21:06:22.307Z,80324.78
2023-02-06T21:08:51.587Z,80322.75
2023-02-06T21:11:18.904Z,80316.66
2023-02-06T21:13:46.102Z,80312.63
2023-02-06T21:16:13.712Z,80320.72
2023-02-06T21:18:42.672Z,80326.81
2023-02-06T21:21:12.558Z,80314.63
2023-02-06T21:23:42.236Z,80328.84
2023-02-06T21:26:12.091Z,80320.72
2023-02-06T21:28:40.662Z,80324.78
2023-02-06T21:31:12.283Z,80336.97
2023-02-06T21:33:40.134Z,80345.06
2023-02-06T21:36:07.876Z,80341.03
2023-02-06T21:38:36.286Z,80341.03
2023-02-06T21:41:05.755Z,80341.03
2023-02-06T21:43:33.860Z,80361.31
2023-02-06T21:46:01.572Z,80369.44
2023-02-06T21:48:28.871Z,80369.44
2023-02-06T21:50:55.874Z,80361.31
2023-02-06T21:53:23.497Z,80369.44
2023-02-06T21:55:50.612Z,80369.44
2023-02-06T21:58:17.816Z,80369.44
2023-02-06T22:00:47.094Z,80383.63
2023-02-06T22:03:15.910Z,80385.66
2023-02-06T22:05:43.173Z,80381.59
2023-02-06T22:08:10.498Z,80389.72
2023-02-06T22:10:38.047Z,80391.75
2023-02-06T22:13:05.965Z,80379.56
2023-02-06T22:15:33.858Z,80377.56
2023-02-06T22:18:01.605Z,80379.56
2023-02-06T22:20:28.753Z,80377.56
2023-02-06T22:22:55.933Z,80369.44
2023-02-06T22:25:23.069Z,80371.47
2023-02-06T22:27:50.323Z,80369.44
2023-02-06T22:30:17.552Z,80357.25
2023-02-06T22:32:44.773Z,80355.22
2023-02-06T22:35:11.720Z,80336.97
2023-02-06T22:37:38.922Z,80336.97
2023-02-06T22:40:06.218Z,80332.91
2023-02-06T22:42:34.784Z,80332.91
2023-02-06T22:45:01.754Z,80328.84
2023-02-06T22:47:28.990Z,80332.91
2023-02-06T22:49:56.016Z,80324.78
2023-02-06T22:52:42.071Z,80308.56
2023-02-06T22:55:09.563Z,80304.50
2023-02-06T22:57:37.287Z,80306.53
2023-02-06T23:00:09.673Z,80324.78
2023-02-06T23:02:38.744Z,80312.63
2023-02-06T23:05:06.292Z,80304.50
2023-02-06T23:07:33.480Z,80308.56
2023-02-06T23:10:00.387Z,80310.59
2023-02-06T23:12:27.987Z,80300.44
2023-02-06T23:14:55.058Z,80300.44
2023-02-06T23:17:22.186Z,80290.28
2023-02-06T23:19:49.141Z,80296.38
2023-02-06T23:22:16.317Z,80300.44
2023-02-06T23:24:43.207Z,80296.38
2023-02-06T23:27:10.512Z,80284.19
2023-02-06T23:29:37.486Z,80280.13
2023-02-06T23:32:05.504Z,80280.13
2023-02-06T23:34:32.357Z,80272.03
2023-02-06T23:36:59.624Z,80276.09
2023-02-06T23:39:26.474Z,80267.97
2023-02-06T23:41:53.756Z,80272.03
2023-02-06T23:44:20.836Z,80267.97
2023-02-06T23:46:48.008Z,80272.03
2023-02-06T23:49:15.134Z,80276.09
2023-02-06T23:51:42.462Z,80267.97
2023-02-06T23:54:10.098Z,80263.91
2023-02-06T23:56:38.249Z,80263.91
2023-02-06T23:59:06.302Z,80255.78
